sensor_id;sensor_type;location;lat;lon;timestamp;P1;durP1;ratioP1;P2;durP2;ratioP2
27833;SDS011;15200;50.570;7.244;2022-09-03T00:01:53;7.37;;;2.17;;
27833;SDS011;15200;50.570;7.244;2022-09-03T00:04:27;3.47;;;1.80;;
27833;SDS011;15200;50.570;7.244;2022-09-03T00:07:00;5.60;;;1.92;;
27833;SDS011;15200;50.570;7.244;2022-09-03T00:09:33;9.45;;;2.22;;
27833;SDS011;15200;50.570;7.244;2022-09-03T00:12:07;8.73;;;2.25;;
27833;SDS011;15200;50.570;7.244;2022-09-03T00:14:33;7.95;;;2.15;;
27833;SDS011;15200;50.570;7.244;2022-09-03T00:17:02;3.08;;;1.45;;
27833;SDS011;15200;50.570;7.244;2022-09-03T00:19:31;9.70;;;1.95;;
27833;SDS011;15200;50.570;7.244;2022-09-03T00:22:02;3.30;;;1.47;;
27833;SDS011;15200;50.570;7.244;2022-09-03T00:24:29;1.98;;;1.35;;
27833;SDS011;15200;50.570;7.244;2022-09-03T00:26:59;2.62;;;1.30;;
27833;SDS011;15200;50.570;7.244;2022-09-03T00:29:28;8.60;;;1.70;;
27833;SDS011;15200;50.570;7.244;2022-09-03T00:31:55;5.58;;;1.65;;
27833;SDS011;15200;50.570;7.244;2022-09-03T00:34:37;2.30;;;1.30;;
27833;SDS011;15200;50.570;7.244;2022-09-03T00:37:07;5.83;;;1.50;;
27833;SDS011;15200;50.570;7.244;2022-09-03T00:39:36;6.78;;;1.60;;
27833;SDS011;15200;50.570;7.244;2022-09-03T00:42:19;4.65;;;1.37;;
27833;SDS011;15200;50.570;7.244;2022-09-03T00:50:08;6.70;;;1.22;;
27833;SDS011;15200;50.570;7.244;2022-09-03T00:58:17;5.12;;;1.62;;
27833;SDS011;15200;50.570;7.244;2022-09-03T01:00:19;3.15;;;1.40;;
27833;SDS011;15200;50.570;7.244;2022-09-03T01:02:50;3.35;;;1.30;;
27833;SDS011;15200;50.570;7.244;2022-09-03T01:05:20;5.10;;;1.52;;
27833;SDS011;15200;50.570;7.244;2022-09-03T01:13:01;6.20;;;1.50;;
27833;SDS011;15200;50.570;7.244;2022-09-03T01:15:35;1.10;;;1.00;;
27833;SDS011;15200;50.570;7.244;2022-09-03T01:18:06;5.33;;;1.40;;
27833;SDS011;15200;50.570;7.244;2022-09-03T01:31:18;6.25;;;1.50;;
27833;SDS011;15200;50.570;7.244;2022-09-03T01:36:29;2.08;;;1.40;;
27833;SDS011;15200;50.570;7.244;2022-09-03T01:38:55;4.10;;;1.80;;
27833;SDS011;15200;50.570;7.244;2022-09-03T01:41:28;3.37;;;1.40;;
27833;SDS011;15200;50.570;7.244;2022-09-03T01:44:14;4.30;;;1.00;;
27833;SDS011;15200;50.570;7.244;2022-09-03T01:46:42;2.10;;;1.30;;
27833;SDS011;15200;50.570;7.244;2022-09-03T01:49:37;2.58;;;1.27;;
27833;SDS011;15200;50.570;7.244;2022-09-03T01:52:10;4.03;;;1.37;;
27833;SDS011;15200;50.570;7.244;2022-09-03T01:59:40;4.78;;;1.17;;
27833;SDS011;15200;50.570;7.244;2022-09-03T02:02:16;5.78;;;1.40;;
27833;SDS011;15200;50.570;7.244;2022-09-03T02:07:30;2.20;;;1.40;;
27833;SDS011;15200;50.570;7.244;2022-09-03T02:09:55;2.22;;;1.20;;
27833;SDS011;15200;50.570;7.244;2022-09-03T02:12:22;5.22;;;1.47;;
27833;SDS011;15200;50.570;7.244;2022-09-03T02:14:49;2.27;;;1.17;;
27833;SDS011;15200;50.570;7.244;2022-09-03T02:17:17;1.67;;;1.10;;
27833;SDS011;15200;50.570;7.244;2022-09-03T02:19:44;4.30;;;1.22;;
27833;SDS011;15200;50.570;7.244;2022-09-03T02:22:11;2.02;;;1.52;;
27833;SDS011;15200;50.570;7.244;2022-09-03T02:24:39;4.87;;;1.40;;
27833;SDS011;15200;50.570;7.244;2022-09-03T02:27:06;4.03;;;1.70;;
27833;SDS011;15200;50.570;7.244;2022-09-03T02:29:33;1.72;;;1.32;;
27833;SDS011;15200;50.570;7.244;2022-09-03T02:32:01;3.77;;;1.17;;
27833;SDS011;15200;50.570;7.244;2022-09-03T02:34:28;2.20;;;1.40;;
27833;SDS011;15200;50.570;7.244;2022-09-03T02:36:55;6.53;;;1.40;;
27833;SDS011;15200;50.570;7.244;2022-09-03T02:39:23;3.27;;;1.57;;
27833;SDS011;15200;50.570;7.244;2022-09-03T02:41:53;3.05;;;1.77;;
27833;SDS011;15200;50.570;7.244;2022-09-03T02:44:27;4.70;;;1.70;;
27833;SDS011;15200;50.570;7.244;2022-09-03T02:46:56;3.12;;;1.40;;
27833;SDS011;15200;50.570;7.244;2022-09-03T02:49:20;3.00;;;1.50;;
27833;SDS011;15200;50.570;7.244;2022-09-03T02:51:47;5.50;;;1.45;;
27833;SDS011;15200;50.570;7.244;2022-09-03T02:54:14;2.98;;;1.22;;
27833;SDS011;15200;50.570;7.244;2022-09-03T02:56:41;3.83;;;1.65;;
27833;SDS011;15200;50.570;7.244;2022-09-03T02:59:09;5.10;;;1.52;;
27833;SDS011;15200;50.570;7.244;2022-09-03T03:01:36;3.12;;;1.10;;
27833;SDS011;15200;50.570;7.244;2022-09-03T03:04:03;2.62;;;1.35;;
27833;SDS011;15200;50.570;7.244;2022-09-03T03:06:31;5.87;;;1.80;;
27833;SDS011;15200;50.570;7.244;2022-09-03T03:08:58;2.30;;;1.72;;
27833;SDS011;15200;50.570;7.244;2022-09-03T03:11:27;4.22;;;1.80;;
27833;SDS011;15200;50.570;7.244;2022-09-03T03:13:55;2.12;;;1.52;;
27833;SDS011;15200;50.570;7.244;2022-09-03T03:16:23;2.75;;;1.70;;
27833;SDS011;15200;50.570;7.244;2022-09-03T03:18:50;3.45;;;1.30;;
27833;SDS011;15200;50.570;7.244;2022-09-03T03:21:18;2.72;;;1.50;;
27833;SDS011;15200;50.570;7.244;2022-09-03T03:23:45;4.30;;;1.52;;
27833;SDS011;15200;50.570;7.244;2022-09-03T03:26:14;1.80;;;1.47;;
27833;SDS011;15200;50.570;7.244;2022-09-03T03:28:43;2.98;;;1.65;;
27833;SDS011;15200;50.570;7.244;2022-09-03T03:31:12;2.37;;;1.50;;
27833;SDS011;15200;50.570;7.244;2022-09-03T03:33:40;3.62;;;1.50;;
27833;SDS011;15200;50.570;7.244;2022-09-03T03:36:09;3.45;;;1.70;;
27833;SDS011;15200;50.570;7.244;2022-09-03T03:38:36;2.58;;;1.62;;
27833;SDS011;15200;50.570;7.244;2022-09-03T03:41:13;3.50;;;1.55;;
27833;SDS011;15200;50.570;7.244;2022-09-03T03:43:36;1.57;;;1.30;;
27833;SDS011;15200;50.570;7.244;2022-09-03T03:46:03;7.53;;;1.80;;
27833;SDS011;15200;50.570;7.244;2022-09-03T03:48:30;6.33;;;1.60;;
27833;SDS011;15200;50.570;7.244;2022-09-03T03:51:01;2.77;;;1.42;;
27833;SDS011;15200;50.570;7.244;2022-09-03T03:53:30;2.25;;;1.37;;
27833;SDS011;15200;50.570;7.244;2022-09-03T03:55:58;4.83;;;1.42;;
27833;SDS011;15200;50.570;7.244;2022-09-03T03:58:27;2.85;;;1.65;;
27833;SDS011;15200;50.570;7.244;2022-09-03T04:00:54;3.98;;;1.32;;
27833;SDS011;15200;50.570;7.244;2022-09-03T04:03:22;5.62;;;1.70;;
27833;SDS011;15200;50.570;7.244;2022-09-03T04:05:55;4.55;;;1.50;;
27833;SDS011;15200;50.570;7.244;2022-09-03T04:08:25;5.25;;;1.42;;
27833;SDS011;15200;50.570;7.244;2022-09-03T04:10:52;2.70;;;1.67;;
27833;SDS011;15200;50.570;7.244;2022-09-03T04:13:19;1.95;;;1.27;;
27833;SDS011;15200;50.570;7.244;2022-09-03T04:15:47;5.90;;;1.35;;
27833;SDS011;15200;50.570;7.244;2022-09-03T04:18:14;6.90;;;1.67;;
27833;SDS011;15200;50.570;7.244;2022-09-03T04:20:41;2.72;;;1.50;;
27833;SDS011;15200;50.570;7.244;2022-09-03T04:23:09;5.62;;;1.70;;
27833;SDS011;15200;50.570;7.244;2022-09-03T04:25:36;1.85;;;1.37;;
27833;SDS011;15200;50.570;7.244;2022-09-03T04:28:04;5.92;;;1.50;;
27833;SDS011;15200;50.570;7.244;2022-09-03T04:30:32;7.95;;;1.82;;
27833;SDS011;15200;50.570;7.244;2022-09-03T04:32:59;10.63;;;1.67;;
27833;SDS011;15200;50.570;7.244;2022-09-03T04:35:26;1.95;;;1.67;;
27833;SDS011;15200;50.570;7.244;2022-09-03T04:37:55;5.10;;;1.57;;
27833;SDS011;15200;50.570;7.244;2022-09-03T04:40:23;3.42;;;1.37;;
27833;SDS011;15200;50.570;7.244;2022-09-03T04:42:55;3.22;;;1.47;;
27833;SDS011;15200;50.570;7.244;2022-09-03T04:45:19;3.87;;;1.40;;
27833;SDS011;15200;50.570;7.244;2022-09-03T04:47:59;4.85;;;1.72;;
27833;SDS011;15200;50.570;7.244;2022-09-03T04:50:27;5.47;;;1.57;;
27833;SDS011;15200;50.570;7.244;2022-09-03T04:52:58;1.50;;;1.17;;
27833;SDS011;15200;50.570;7.244;2022-09-03T04:55:24;3.37;;;1.17;;
27833;SDS011;15200;50.570;7.244;2022-09-03T04:57:51;5.62;;;1.62;;
27833;SDS011;15200;50.570;7.244;2022-09-03T05:00:18;4.40;;;1.87;;
27833;SDS011;15200;50.570;7.244;2022-09-03T05:02:47;4.97;;;1.70;;
27833;SDS011;15200;50.570;7.244;2022-09-03T05:05:16;3.77;;;1.70;;
27833;SDS011;15200;50.570;7.244;2022-09-03T05:07:43;6.05;;;2.10;;
27833;SDS011;15200;50.570;7.244;2022-09-03T05:10:11;2.52;;;1.70;;
27833;SDS011;15200;50.570;7.244;2022-09-03T05:12:40;3.10;;;1.30;;
27833;SDS011;15200;50.570;7.244;2022-09-03T05:15:08;3.65;;;1.47;;
27833;SDS011;15200;50.570;7.244;2022-09-03T05:17:35;2.25;;;1.45;;
27833;SDS011;15200;50.570;7.244;2022-09-03T05:20:04;7.25;;;1.52;;
27833;SDS011;15200;50.570;7.244;2022-09-03T05:22:33;3.65;;;1.65;;
27833;SDS011;15200;50.570;7.244;2022-09-03T05:25:01;4.75;;;1.67;;
27833;SDS011;15200;50.570;7.244;2022-09-03T05:27:30;3.33;;;1.47;;
27833;SDS011;15200;50.570;7.244;2022-09-03T05:29:57;3.98;;;1.95;;
27833;SDS011;15200;50.570;7.244;2022-09-03T05:32:24;2.12;;;1.30;;
27833;SDS011;15200;50.570;7.244;2022-09-03T05:34:53;3.98;;;1.27;;
27833;SDS011;15200;50.570;7.244;2022-09-03T05:37:21;3.83;;;1.40;;
27833;SDS011;15200;50.570;7.244;2022-09-03T05:39:48;4.97;;;1.72;;
27833;SDS011;15200;50.570;7.244;2022-09-03T05:42:16;17.15;;;2.02;;
27833;SDS011;15200;50.570;7.244;2022-09-03T05:44:43;4.20;;;2.00;;
27833;SDS011;15200;50.570;7.244;2022-09-03T05:47:10;5.72;;;1.72;;
27833;SDS011;15200;50.570;7.244;2022-09-03T05:49:38;14.15;;;2.17;;
27833;SDS011;15200;50.570;7.244;2022-09-03T05:52:05;5.42;;;1.92;;
27833;SDS011;15200;50.570;7.244;2022-09-03T05:54:34;2.47;;;1.40;;
27833;SDS011;15200;50.570;7.244;2022-09-03T05:57:02;6.92;;;1.60;;
27833;SDS011;15200;50.570;7.244;2022-09-03T05:59:29;5.58;;;1.57;;
27833;SDS011;15200;50.570;7.244;2022-09-03T06:01:57;1.67;;;1.32;;
27833;SDS011;15200;50.570;7.244;2022-09-03T06:04:24;3.52;;;1.40;;
27833;SDS011;15200;50.570;7.244;2022-09-03T06:06:52;3.45;;;1.30;;
27833;SDS011;15200;50.570;7.244;2022-09-03T06:09:20;3.00;;;1.30;;
27833;SDS011;15200;50.570;7.244;2022-09-03T06:11:47;8.23;;;1.60;;
27833;SDS011;15200;50.570;7.244;2022-09-03T06:14:15;5.05;;;1.35;;
27833;SDS011;15200;50.570;7.244;2022-09-03T06:16:43;4.35;;;1.60;;
27833;SDS011;15200;50.570;7.244;2022-09-03T06:19:11;2.70;;;1.35;;
27833;SDS011;15200;50.570;7.244;2022-09-03T06:21:40;4.70;;;1.10;;
27833;SDS011;15200;50.570;7.244;2022-09-03T06:24:12;1.60;;;1.12;;
27833;SDS011;15200;50.570;7.244;2022-09-03T06:26:39;2.17;;;1.35;;
27833;SDS011;15200;50.570;7.244;2022-09-03T06:29:07;2.75;;;1.20;;
27833;SDS011;15200;50.570;7.244;2022-09-03T06:31:34;6.83;;;1.00;;
27833;SDS011;15200;50.570;7.244;2022-09-03T06:34:01;4.22;;;1.15;;
27833;SDS011;15200;50.570;7.244;2022-09-03T06:36:29;3.95;;;1.40;;
27833;SDS011;15200;50.570;7.244;2022-09-03T06:38:56;4.50;;;1.00;;
27833;SDS011;15200;50.570;7.244;2022-09-03T06:41:25;4.55;;;1.40;;
27833;SDS011;15200;50.570;7.244;2022-09-03T06:43:54;2.72;;;1.02;;
27833;SDS011;15200;50.570;7.244;2022-09-03T06:46:22;5.92;;;0.90;;
27833;SDS011;15200;50.570;7.244;2022-09-03T06:48:50;6.58;;;1.62;;
27833;SDS011;15200;50.570;7.244;2022-09-03T06:51:19;2.52;;;1.37;;
27833;SDS011;15200;50.570;7.244;2022-09-03T06:53:48;1.82;;;1.17;;
27833;SDS011;15200;50.570;7.244;2022-09-03T06:56:17;2.45;;;1.40;;
27833;SDS011;15200;50.570;7.244;2022-09-03T06:58:45;2.62;;;0.93;;
27833;SDS011;15200;50.570;7.244;2022-09-03T07:01:18;3.02;;;1.20;;
27833;SDS011;15200;50.570;7.244;2022-09-03T07:03:42;2.00;;;1.12;;
27833;SDS011;15200;50.570;7.244;2022-09-03T07:06:13;3.20;;;0.90;;
27833;SDS011;15200;50.570;7.244;2022-09-03T07:08:41;1.45;;;1.15;;
27833;SDS011;15200;50.570;7.244;2022-09-03T07:11:09;1.52;;;0.82;;
27833;SDS011;15200;50.570;7.244;2022-09-03T07:13:38;7.03;;;1.10;;
27833;SDS011;15200;50.570;7.244;2022-09-03T07:16:07;4.22;;;1.02;;
27833;SDS011;15200;50.570;7.244;2022-09-03T07:18:35;5.03;;;1.10;;
27833;SDS011;15200;50.570;7.244;2022-09-03T07:21:07;1.98;;;1.10;;
27833;SDS011;15200;50.570;7.244;2022-09-03T07:23:31;4.05;;;1.52;;
27833;SDS011;15200;50.570;7.244;2022-09-03T07:26:00;4.80;;;1.37;;
27833;SDS011;15200;50.570;7.244;2022-09-03T07:28:37;4.72;;;1.52;;
27833;SDS011;15200;50.570;7.244;2022-09-03T07:31:26;2.75;;;1.75;;
27833;SDS011;15200;50.570;7.244;2022-09-03T07:33:59;1.87;;;1.25;;
27833;SDS011;15200;50.570;7.244;2022-09-03T07:36:23;3.22;;;1.55;;
27833;SDS011;15200;50.570;7.244;2022-09-03T07:38:53;4.45;;;1.55;;
27833;SDS011;15200;50.570;7.244;2022-09-03T07:41:19;2.15;;;1.30;;
27833;SDS011;15200;50.570;7.244;2022-09-03T07:43:48;2.33;;;1.40;;
27833;SDS011;15200;50.570;7.244;2022-09-03T07:46:19;4.33;;;1.60;;
27833;SDS011;15200;50.570;7.244;2022-09-03T07:48:50;2.05;;;1.30;;
27833;SDS011;15200;50.570;7.244;2022-09-03T07:51:18;2.33;;;1.50;;
27833;SDS011;15200;50.570;7.244;2022-09-03T07:53:47;2.00;;;1.40;;
27833;SDS011;15200;50.570;7.244;2022-09-03T07:56:35;4.25;;;1.57;;
27833;SDS011;15200;50.570;7.244;2022-09-03T07:59:02;7.80;;;1.70;;
27833;SDS011;15200;50.570;7.244;2022-09-03T08:01:30;1.72;;;1.52;;
27833;SDS011;15200;50.570;7.244;2022-09-03T08:03:58;3.33;;;1.50;;
27833;SDS011;15200;50.570;7.244;2022-09-03T08:06:26;2.25;;;1.55;;
27833;SDS011;15200;50.570;7.244;2022-09-03T08:08:59;3.80;;;1.45;;
27833;SDS011;15200;50.570;7.244;2022-09-03T08:11:27;5.78;;;1.72;;
27833;SDS011;15200;50.570;7.244;2022-09-03T08:13:55;6.92;;;1.87;;
27833;SDS011;15200;50.570;7.244;2022-09-03T08:16:31;3.10;;;1.40;;
27833;SDS011;15200;50.570;7.244;2022-09-03T08:18:59;5.33;;;1.60;;
27833;SDS011;15200;50.570;7.244;2022-09-03T08:21:27;1.20;;;1.10;;
27833;SDS011;15200;50.570;7.244;2022-09-03T08:23:54;1.98;;;1.15;;
27833;SDS011;15200;50.570;7.244;2022-09-03T08:26:24;1.82;;;1.40;;
27833;SDS011;15200;50.570;7.244;2022-09-03T08:28:51;2.83;;;1.02;;
27833;SDS011;15200;50.570;7.244;2022-09-03T08:31:20;1.37;;;1.07;;
27833;SDS011;15200;50.570;7.244;2022-09-03T08:33:49;3.10;;;1.12;;
27833;SDS011;15200;50.570;7.244;2022-09-03T08:36:28;2.62;;;1.07;;
27833;SDS011;15200;50.570;7.244;2022-09-03T08:38:51;1.95;;;1.05;;
27833;SDS011;15200;50.570;7.244;2022-09-03T08:41:27;4.75;;;0.95;;
27833;SDS011;15200;50.570;7.244;2022-09-03T08:46:25;2.42;;;1.20;;
27833;SDS011;15200;50.570;7.244;2022-09-03T08:48:53;1.22;;;0.80;;
27833;SDS011;15200;50.570;7.244;2022-09-03T08:51:22;2.37;;;1.00;;
27833;SDS011;15200;50.570;7.244;2022-09-03T08:53:51;3.50;;;1.12;;
27833;SDS011;15200;50.570;7.244;2022-09-03T08:56:23;1.55;;;0.72;;
27833;SDS011;15200;50.570;7.244;2022-09-03T08:58:50;3.50;;;1.00;;
27833;SDS011;15200;50.570;7.244;2022-09-03T09:06:45;5.10;;;1.00;;
27833;SDS011;15200;50.570;7.244;2022-09-03T09:12:19;1.77;;;1.02;;
27833;SDS011;15200;50.570;7.244;2022-09-03T09:14:34;1.87;;;0.88;;
27833;SDS011;15200;50.570;7.244;2022-09-03T09:17:08;1.47;;;0.75;;
27833;SDS011;15200;50.570;7.244;2022-09-03T09:19:38;7.17;;;1.10;;
27833;SDS011;15200;50.570;7.244;2022-09-03T09:22:08;3.35;;;0.80;;
27833;SDS011;15200;50.570;7.244;2022-09-03T09:24:40;1.67;;;1.17;;
27833;SDS011;15200;50.570;7.244;2022-09-03T09:27:08;1.47;;;1.27;;
27833;SDS011;15200;50.570;7.244;2022-09-03T09:29:36;2.80;;;1.20;;
27833;SDS011;15200;50.570;7.244;2022-09-03T09:32:04;2.30;;;1.00;;
27833;SDS011;15200;50.570;7.244;2022-09-03T09:34:33;1.95;;;1.05;;
27833;SDS011;15200;50.570;7.244;2022-09-03T09:37:02;2.87;;;1.10;;
27833;SDS011;15200;50.570;7.244;2022-09-03T09:39:29;3.10;;;1.07;;
27833;SDS011;15200;50.570;7.244;2022-09-03T09:41:57;4.58;;;1.12;;
27833;SDS011;15200;50.570;7.244;2022-09-03T09:44:25;1.95;;;0.82;;
27833;SDS011;15200;50.570;7.244;2022-09-03T09:47:00;4.15;;;1.25;;
27833;SDS011;15200;50.570;7.244;2022-09-03T09:49:28;2.05;;;1.20;;
27833;SDS011;15200;50.570;7.244;2022-09-03T09:52:00;3.40;;;1.00;;
27833;SDS011;15200;50.570;7.244;2022-09-03T09:54:28;3.60;;;1.12;;
27833;SDS011;15200;50.570;7.244;2022-09-03T09:56:59;1.85;;;1.22;;
27833;SDS011;15200;50.570;7.244;2022-09-03T09:59:28;3.70;;;1.20;;
27833;SDS011;15200;50.570;7.244;2022-09-03T10:02:07;1.50;;;1.32;;
27833;SDS011;15200;50.570;7.244;2022-09-03T10:04:31;2.98;;;1.40;;
27833;SDS011;15200;50.570;7.244;2022-09-03T10:09:33;2.72;;;1.10;;
27833;SDS011;15200;50.570;7.244;2022-09-03T10:12:18;1.50;;;1.17;;
27833;SDS011;15200;50.570;7.244;2022-09-03T10:14:46;3.72;;;1.60;;
27833;SDS011;15200;50.570;7.244;2022-09-03T10:19:52;3.17;;;1.10;;
27833;SDS011;15200;50.570;7.244;2022-09-03T10:22:19;1.90;;;1.32;;
27833;SDS011;15200;50.570;7.244;2022-09-03T10:24:57;2.42;;;1.17;;
27833;SDS011;15200;50.570;7.244;2022-09-03T10:27:25;3.85;;;1.62;;
27833;SDS011;15200;50.570;7.244;2022-09-03T10:29:52;2.75;;;1.20;;
27833;SDS011;15200;50.570;7.244;2022-09-03T10:37:52;3.05;;;1.60;;
27833;SDS011;15200;50.570;7.244;2022-09-03T10:40:24;3.47;;;1.55;;
27833;SDS011;15200;50.570;7.244;2022-09-03T10:43:39;3.10;;;1.60;;
27833;SDS011;15200;50.570;7.244;2022-09-03T10:50:56;7.70;;;1.92;;
27833;SDS011;15200;50.570;7.244;2022-09-03T10:53:36;3.80;;;1.37;;
27833;SDS011;15200;50.570;7.244;2022-09-03T10:56:01;3.05;;;1.50;;
27833;SDS011;15200;50.570;7.244;2022-09-03T11:01:16;2.37;;;1.30;;
27833;SDS011;15200;50.570;7.244;2022-09-03T11:03:45;2.65;;;1.70;;
27833;SDS011;15200;50.570;7.244;2022-09-03T11:08:47;2.17;;;1.60;;
27833;SDS011;15200;50.570;7.244;2022-09-03T11:11:24;7.17;;;1.82;;
27833;SDS011;15200;50.570;7.244;2022-09-03T11:14:09;3.60;;;1.50;;
27833;SDS011;15200;50.570;7.244;2022-09-03T11:16:25;3.85;;;1.45;;
27833;SDS011;15200;50.570;7.244;2022-09-03T11:18:53;3.70;;;1.42;;
27833;SDS011;15200;50.570;7.244;2022-09-03T11:21:23;2.12;;;1.67;;
27833;SDS011;15200;50.570;7.244;2022-09-03T11:24:36;6.58;;;1.50;;
27833;SDS011;15200;50.570;7.244;2022-09-03T11:26:19;2.00;;;1.50;;
27833;SDS011;15200;50.570;7.244;2022-09-03T11:28:58;4.33;;;1.40;;
27833;SDS011;15200;50.570;7.244;2022-09-03T11:31:44;1.70;;;1.20;;
27833;SDS011;15200;50.570;7.244;2022-09-03T11:34:07;8.75;;;1.62;;
27833;SDS011;15200;50.570;7.244;2022-09-03T11:36:36;4.47;;;1.30;;
27833;SDS011;15200;50.570;7.244;2022-09-03T11:39:17;2.15;;;1.50;;
27833;SDS011;15200;50.570;7.244;2022-09-03T11:41:41;4.15;;;1.30;;
27833;SDS011;15200;50.570;7.244;2022-09-03T11:44:18;7.72;;;1.35;;
27833;SDS011;15200;50.570;7.244;2022-09-03T11:46:56;3.02;;;1.30;;
27833;SDS011;15200;50.570;7.244;2022-09-03T11:49:30;3.15;;;1.57;;
27833;SDS011;15200;50.570;7.244;2022-09-03T11:52:02;4.50;;;1.70;;
27833;SDS011;15200;50.570;7.244;2022-09-03T11:54:41;5.30;;;1.75;;
27833;SDS011;15200;50.570;7.244;2022-09-03T11:57:05;6.83;;;1.55;;
27833;SDS011;15200;50.570;7.244;2022-09-03T11:59:35;3.08;;;1.70;;
27833;SDS011;15200;50.570;7.244;2022-09-03T12:02:11;2.67;;;1.40;;
27833;SDS011;15200;50.570;7.244;2022-09-03T12:04:45;2.95;;;1.32;;
27833;SDS011;15200;50.570;7.244;2022-09-03T12:10:00;2.42;;;1.45;;
27833;SDS011;15200;50.570;7.244;2022-09-03T12:17:51;6.55;;;1.65;;
27833;SDS011;15200;50.570;7.244;2022-09-03T12:20:18;2.60;;;1.70;;
27833;SDS011;15200;50.570;7.244;2022-09-03T12:22:47;4.35;;;1.47;;
27833;SDS011;15200;50.570;7.244;2022-09-03T12:25:14;3.75;;;1.47;;
27833;SDS011;15200;50.570;7.244;2022-09-03T12:27:43;4.00;;;1.30;;
27833;SDS011;15200;50.570;7.244;2022-09-03T12:30:17;2.00;;;1.20;;
27833;SDS011;15200;50.570;7.244;2022-09-03T12:32:46;5.90;;;1.70;;
27833;SDS011;15200;50.570;7.244;2022-09-03T12:35:19;3.52;;;1.30;;
27833;SDS011;15200;50.570;7.244;2022-09-03T12:37:42;4.58;;;1.50;;
27833;SDS011;15200;50.570;7.244;2022-09-03T12:40:20;3.42;;;1.30;;
27833;SDS011;15200;50.570;7.244;2022-09-03T12:43:16;3.85;;;1.45;;
27833;SDS011;15200;50.570;7.244;2022-09-03T12:45:50;2.58;;;1.32;;
27833;SDS011;15200;50.570;7.244;2022-09-03T12:48:14;7.80;;;1.55;;
27833;SDS011;15200;50.570;7.244;2022-09-03T12:50:42;2.70;;;1.40;;
27833;SDS011;15200;50.570;7.244;2022-09-03T12:53:11;2.17;;;1.35;;
27833;SDS011;15200;50.570;7.244;2022-09-03T12:55:47;2.30;;;1.22;;
27833;SDS011;15200;50.570;7.244;2022-09-03T12:58:22;2.37;;;1.17;;
27833;SDS011;15200;50.570;7.244;2022-09-03T13:00:44;2.08;;;1.50;;
27833;SDS011;15200;50.570;7.244;2022-09-03T13:03:15;7.95;;;1.67;;
27833;SDS011;15200;50.570;7.244;2022-09-03T13:05:42;3.20;;;1.60;;
27833;SDS011;15200;50.570;7.244;2022-09-03T13:08:13;1.72;;;1.25;;
27833;SDS011;15200;50.570;7.244;2022-09-03T13:10:39;5.10;;;1.50;;
27833;SDS011;15200;50.570;7.244;2022-09-03T13:15:56;2.10;;;1.55;;
27833;SDS011;15200;50.570;7.244;2022-09-03T13:18:48;3.83;;;1.30;;
27833;SDS011;15200;50.570;7.244;2022-09-03T13:26:03;2.02;;;1.35;;
27833;SDS011;15200;50.570;7.244;2022-09-03T13:31:23;1.65;;;1.37;;
27833;SDS011;15200;50.570;7.244;2022-09-03T13:33:51;1.70;;;1.60;;
27833;SDS011;15200;50.570;7.244;2022-09-03T13:36:19;3.75;;;1.45;;
27833;SDS011;15200;50.570;7.244;2022-09-03T13:38:52;3.45;;;1.20;;
27833;SDS011;15200;50.570;7.244;2022-09-03T13:41:31;3.33;;;1.30;;
27833;SDS011;15200;50.570;7.244;2022-09-03T13:44:46;3.70;;;1.47;;
27833;SDS011;15200;50.570;7.244;2022-09-03T13:46:34;3.35;;;1.10;;
27833;SDS011;15200;50.570;7.244;2022-09-03T13:49:36;2.47;;;1.40;;
27833;SDS011;15200;50.570;7.244;2022-09-03T13:51:58;2.83;;;1.25;;
27833;SDS011;15200;50.570;7.244;2022-09-03T13:54:23;2.85;;;1.10;;
27833;SDS011;15200;50.570;7.244;2022-09-03T13:57:19;1.95;;;1.15;;
27833;SDS011;15200;50.570;7.244;2022-09-03T13:59:28;1.30;;;1.10;;
27833;SDS011;15200;50.570;7.244;2022-09-03T14:05:14;1.77;;;1.32;;
27833;SDS011;15200;50.570;7.244;2022-09-03T14:07:12;1.72;;;1.15;;
27833;SDS011;15200;50.570;7.244;2022-09-03T14:09:47;1.85;;;1.27;;
27833;SDS011;15200;50.570;7.244;2022-09-03T14:20:03;3.67;;;1.20;;
27833;SDS011;15200;50.570;7.244;2022-09-03T14:22:44;2.90;;;1.30;;
27833;SDS011;15200;50.570;7.244;2022-09-03T14:25:13;3.60;;;1.25;;
27833;SDS011;15200;50.570;7.244;2022-09-03T14:27:39;3.90;;;1.20;;
27833;SDS011;15200;50.570;7.244;2022-09-03T14:30:16;3.70;;;1.30;;
27833;SDS011;15200;50.570;7.244;2022-09-03T14:35:24;2.50;;;1.10;;
27833;SDS011;15200;50.570;7.244;2022-09-03T14:43:20;2.12;;;1.30;;
27833;SDS011;15200;50.570;7.244;2022-09-03T14:51:02;3.30;;;1.40;;
27833;SDS011;15200;50.570;7.244;2022-09-03T14:56:07;1.05;;;0.88;;
27833;SDS011;15200;50.570;7.244;2022-09-03T14:58:39;5.33;;;1.40;;
27833;SDS011;15200;50.570;7.244;2022-09-03T15:01:51;2.40;;;1.37;;
27833;SDS011;15200;50.570;7.244;2022-09-03T15:11:51;2.08;;;1.20;;
27833;SDS011;15200;50.570;7.244;2022-09-03T15:27:51;2.50;;;0.90;;
27833;SDS011;15200;50.570;7.244;2022-09-03T15:30:17;2.35;;;0.88;;
27833;SDS011;15200;50.570;7.244;2022-09-03T15:40:33;3.10;;;0.78;;
27833;SDS011;15200;50.570;7.244;2022-09-03T15:43:09;1.37;;;0.75;;
27833;SDS011;15200;50.570;7.244;2022-09-03T15:45:39;2.37;;;0.80;;
27833;SDS011;15200;50.570;7.244;2022-09-03T15:48:12;3.83;;;1.25;;
27833;SDS011;15200;50.570;7.244;2022-09-03T15:50:57;5.85;;;2.05;;
27833;SDS011;15200;50.570;7.244;2022-09-03T15:55:42;4.97;;;1.87;;
27833;SDS011;15200;50.570;7.244;2022-09-03T15:58:16;8.20;;;1.87;;
27833;SDS011;15200;50.570;7.244;2022-09-03T16:03:33;7.62;;;1.90;;
27833;SDS011;15200;50.570;7.244;2022-09-03T16:06:01;5.92;;;1.90;;
27833;SDS011;15200;50.570;7.244;2022-09-03T16:08:42;5.50;;;1.98;;
27833;SDS011;15200;50.570;7.244;2022-09-03T16:11:15;7.97;;;2.50;;
27833;SDS011;15200;50.570;7.244;2022-09-03T16:13:49;7.62;;;2.17;;
27833;SDS011;15200;50.570;7.244;2022-09-03T16:16:21;7.03;;;1.95;;
27833;SDS011;15200;50.570;7.244;2022-09-03T16:19:04;4.30;;;1.52;;
27833;SDS011;15200;50.570;7.244;2022-09-03T16:21:34;4.20;;;1.60;;
27833;SDS011;15200;50.570;7.244;2022-09-03T16:26:33;5.28;;;1.62;;
27833;SDS011;15200;50.570;7.244;2022-09-03T16:29:16;4.75;;;1.35;;
27833;SDS011;15200;50.570;7.244;2022-09-03T16:32:06;3.00;;;1.42;;
27833;SDS011;15200;50.570;7.244;2022-09-03T16:42:43;9.83;;;1.57;;
27833;SDS011;15200;50.570;7.244;2022-09-03T16:45:12;2.45;;;1.30;;
27833;SDS011;15200;50.570;7.244;2022-09-03T16:50:22;2.72;;;1.27;;
27833;SDS011;15200;50.570;7.244;2022-09-03T16:53:02;4.00;;;1.60;;
27833;SDS011;15200;50.570;7.244;2022-09-03T16:55:51;2.52;;;1.25;;
27833;SDS011;15200;50.570;7.244;2022-09-03T16:58:34;3.70;;;1.60;;
27833;SDS011;15200;50.570;7.244;2022-09-03T17:01:03;3.40;;;1.85;;
27833;SDS011;15200;50.570;7.244;2022-09-03T17:13:40;5.72;;;1.62;;
27833;SDS011;15200;50.570;7.244;2022-09-03T17:16:14;5.37;;;1.80;;
27833;SDS011;15200;50.570;7.244;2022-09-03T17:26:52;3.47;;;2.25;;
27833;SDS011;15200;50.570;7.244;2022-09-03T17:29:12;4.55;;;2.15;;
27833;SDS011;15200;50.570;7.244;2022-09-03T17:31:47;4.05;;;2.37;;
27833;SDS011;15200;50.570;7.244;2022-09-03T17:37:07;2.50;;;1.80;;
27833;SDS011;15200;50.570;7.244;2022-09-03T17:39:52;3.47;;;2.30;;
27833;SDS011;15200;50.570;7.244;2022-09-03T17:42:38;3.42;;;2.15;;
27833;SDS011;15200;50.570;7.244;2022-09-03T17:45:06;3.92;;;2.00;;
27833;SDS011;15200;50.570;7.244;2022-09-03T17:50:18;6.47;;;2.80;;
27833;SDS011;15200;50.570;7.244;2022-09-03T17:52:46;5.75;;;3.20;;
27833;SDS011;15200;50.570;7.244;2022-09-03T17:57:51;5.37;;;3.15;;
27833;SDS011;15200;50.570;7.244;2022-09-03T18:00:33;6.80;;;3.52;;
27833;SDS011;15200;50.570;7.244;2022-09-03T18:03:00;8.55;;;3.40;;
27833;SDS011;15200;50.570;7.244;2022-09-03T18:05:29;6.92;;;3.42;;
27833;SDS011;15200;50.570;7.244;2022-09-03T18:08:02;4.75;;;3.87;;
27833;SDS011;15200;50.570;7.244;2022-09-03T18:13:17;4.87;;;3.47;;
27833;SDS011;15200;50.570;7.244;2022-09-03T18:15:47;7.03;;;3.30;;
27833;SDS011;15200;50.570;7.244;2022-09-03T18:18:23;4.30;;;3.10;;